Hadley, United Kingdom
Current Conditions -  °F | °C
As of 3:50 PM on Thursday 23 Oct 2014 (Local Time) from EGOS Reporting Station
Broken Clouds Broken Clouds  
Wind Chill: 16°   Ceiling: 2200
Heat Index: 16°   Visibility: 6mi
Dew Point: 12°   Wind: 16mph
Humidity: 77%   Direction: 220°SW
Pressure: 29.91"   Gusts: NA
Location:  52.7°N, 2.48°W
Report Text: EGOS 231450Z 22014KT 9999 FEW018 BKN022 BKN030 16/12 Q1013 WHT NOSIG
Loading
Personal Weather Stations






























Interactive Weather Map
Tropical Storm Tracking
New forecast layout! Learn more

10-Day Weather Forecast

Advertisements
Track Severe Weather on mobile